createdAt,value
2023-04-15T00:00:04.672Z,6.5
2023-04-15T00:01:13.008Z,6.5
2023-04-15T00:02:21.415Z,6.5
2023-04-15T00:03:30.167Z,5.9
2023-04-15T00:04:38.225Z,5.9
2023-04-15T00:05:46.531Z,5.9
2023-04-15T00:06:55.091Z,5.9
2023-04-15T00:08:03.414Z,5.9
2023-04-15T00:09:11.736Z,5.9
2023-04-15T00:10:20.268Z,6.3
2023-04-15T00:11:28.625Z,6.3
2023-04-15T00:12:36.938Z,6.3
2023-04-15T00:13:45.469Z,5.7
2023-04-15T00:14:53.786Z,5.7
2023-04-15T00:16:02.190Z,5.7
2023-04-15T00:17:10.658Z,5.6
2023-04-15T00:18:18.978Z,5.6
2023-04-15T00:19:27.327Z,5.6
2023-04-15T00:20:35.846Z,5.6
2023-04-15T00:21:44.176Z,5.6
2023-04-15T00:22:52.532Z,5.6
2023-04-15T00:24:01.066Z,5.9
2023-04-15T00:25:09.391Z,5.9
2023-04-15T00:26:17.733Z,5.9
2023-04-15T00:27:26.317Z,6.1
2023-04-15T00:28:34.613Z,6.1
2023-04-15T00:29:43.006Z,6.1
2023-04-15T00:30:51.616Z,5.9
2023-04-15T00:31:59.892Z,5.9
2023-04-15T00:33:08.233Z,5.9
2023-04-15T00:34:16.783Z,6
2023-04-15T00:35:25.109Z,6
2023-04-15T00:36:33.434Z,6
2023-04-15T00:37:42.339Z,6.6
2023-04-15T00:38:50.344Z,6.6
2023-04-15T00:39:58.665Z,6.6
2023-04-15T00:41:07.194Z,6.7
2023-04-15T00:42:15.527Z,6.7
2023-04-15T00:43:23.879Z,6.7
2023-04-15T00:44:32.402Z,6.8
2023-04-15T00:45:40.752Z,6.8
2023-04-15T00:46:49.064Z,6.8
2023-04-15T00:47:57.661Z,7.1
2023-04-15T00:49:05.936Z,7.1
2023-04-15T00:50:14.269Z,7.1
2023-04-15T00:51:22.810Z,7.8
2023-04-15T00:52:31.146Z,7.8
2023-04-15T00:53:39.477Z,7.8
2023-04-15T00:54:48.001Z,8.8
2023-04-15T00:55:56.334Z,8.8
2023-04-15T00:57:04.686Z,8.8
2023-04-15T00:58:13.225Z,8.5
2023-04-15T00:59:21.576Z,8.5
2023-04-15T01:00:29.877Z,8.5
2023-04-15T01:01:38.498Z,8.2
2023-04-15T01:02:47.017Z,8.2
2023-04-15T01:03:55.183Z,8.2
2023-04-15T01:05:03.626Z,8.5
2023-04-15T01:06:11.961Z,8.5
2023-04-15T01:07:20.304Z,8.5
2023-04-15T01:08:28.832Z,8.7
2023-04-15T01:09:37.154Z,8.7
2023-04-15T01:10:45.479Z,8.7
2023-04-15T01:11:54.015Z,8.9
2023-04-15T01:13:02.340Z,8.9
2023-04-15T01:14:10.689Z,8.9
2023-04-15T01:15:19.398Z,8.1
2023-04-15T01:16:27.664Z,8.1
2023-04-15T01:17:35.915Z,8.1
2023-04-15T01:18:44.458Z,8.3
2023-04-15T01:19:52.795Z,8.3
2023-04-15T01:21:01.116Z,8.3
2023-04-15T01:22:09.666Z,8.6
2023-04-15T01:23:17.996Z,8.6
2023-04-15T01:24:26.328Z,8.6
2023-04-15T01:25:34.905Z,8.9
2023-04-15T01:26:44.500Z,8.9
2023-04-15T01:27:51.538Z,8.9
2023-04-15T01:29:00.299Z,8.7
2023-04-15T01:30:08.392Z,8.7
2023-04-15T01:31:16.833Z,8.7
2023-04-15T01:32:25.365Z,8.5
2023-04-15T01:33:33.617Z,8.5
2023-04-15T01:34:41.955Z,8.5
2023-04-15T01:35:50.488Z,8.7
2023-04-15T01:36:58.819Z,8.7
2023-04-15T01:38:07.154Z,8.7
2023-04-15T01:39:15.696Z,8.6
2023-04-15T01:40:24.023Z,8.6
2023-04-15T01:41:32.353Z,8.6
2023-04-15T01:42:40.898Z,7.7
2023-04-15T01:43:49.232Z,7.7
2023-04-15T01:44:57.556Z,7.7
2023-04-15T01:46:06.109Z,7.8
2023-04-15T01:47:14.450Z,7.8
2023-04-15T01:48:22.754Z,7.8
2023-04-15T01:49:31.292Z,7.7
2023-04-15T01:50:39.625Z,7.7
2023-04-15T01:51:47.968Z,7.7
2023-04-15T01:52:56.498Z,7.6
2023-04-15T01:54:04.830Z,7.6
2023-04-15T01:55:13.182Z,7.6
2023-04-15T01:56:21.746Z,7.3
2023-04-15T01:57:30.060Z,7.3
2023-04-15T01:58:38.378Z,7.3
2023-04-15T01:59:46.923Z,7.4
2023-04-15T02:00:55.282Z,7.4
2023-04-15T02:02:03.603Z,7.4
2023-04-15T02:03:12.192Z,7.7
2023-04-15T02:04:20.473Z,7.7
2023-04-15T02:05:28.809Z,7.7
2023-04-15T02:06:37.351Z,8.2
2023-04-15T02:07:45.689Z,8.2
2023-04-15T02:08:54.016Z,8.2
2023-04-15T02:10:02.541Z,8.1
2023-04-15T02:11:10.880Z,8.1
2023-04-15T02:12:19.229Z,8.1
2023-04-15T02:13:27.766Z,8.2
2023-04-15T02:14:36.096Z,8.2
2023-04-15T02:15:44.449Z,8.2
2023-04-15T02:16:53.039Z,8.2
2023-04-15T02:18:01.315Z,8.2
2023-04-15T02:19:09.887Z,8.2
2023-04-15T02:20:18.391Z,8.1
2023-04-15T02:21:26.726Z,8.1
2023-04-15T02:22:35.069Z,8.1
2023-04-15T02:23:43.617Z,7
2023-04-15T02:24:51.947Z,7
2023-04-15T02:26:00.272Z,7
2023-04-15T02:27:08.812Z,6.9
2023-04-15T02:28:17.139Z,6.9
2023-04-15T02:29:25.466Z,6.9
2023-04-15T02:30:34.004Z,6.9
2023-04-15T02:31:42.395Z,6.9
2023-04-15T02:32:50.686Z,6.9
2023-04-15T02:33:59.191Z,7
2023-04-15T02:35:07.558Z,7
2023-04-15T02:36:15.877Z,7
2023-04-15T02:37:24.416Z,6.8
2023-04-15T02:38:32.740Z,6.8
2023-04-15T02:39:41.081Z,6.8
2023-04-15T02:40:49.669Z,7.2
2023-04-15T02:41:57.950Z,7.2
2023-04-15T02:43:06.301Z,7.2
2023-04-15T02:44:14.806Z,7.1
2023-04-15T02:45:23.130Z,7.1
2023-04-15T02:46:31.542Z,7.1
2023-04-15T02:47:40.066Z,6.8
2023-04-15T02:48:48.339Z,6.8
2023-04-15T02:49:56.668Z,6.8
2023-04-15T02:51:05.218Z,6.6
2023-04-15T02:52:13.526Z,6.6
2023-04-15T02:53:21.857Z,6.6
2023-04-15T02:54:30.392Z,6.6
2023-04-15T02:55:38.741Z,6.6
2023-04-15T02:56:47.067Z,6.6
2023-04-15T02:57:55.670Z,6.1
2023-04-15T02:59:04.027Z,6.1
2023-04-15T03:00:12.356Z,6.1
2023-04-15T03:01:20.885Z,6.1
2023-04-15T03:02:29.319Z,6.1
2023-04-15T03:03:37.561Z,6.1
2023-04-15T03:04:46.093Z,5.9
2023-04-15T03:05:54.418Z,5.9
2023-04-15T03:07:02.770Z,5.9
2023-04-15T03:08:11.271Z,5.5
2023-04-15T03:09:19.589Z,5.5
2023-04-15T03:10:27.926Z,5.5
2023-04-15T03:11:36.569Z,5.2
2023-04-15T03:12:44.786Z,5.2
2023-04-15T03:13:53.105Z,5.2
2023-04-15T03:15:01.660Z,4.6
2023-04-15T03:16:09.997Z,4.6
2023-04-15T03:17:18.398Z,4.6
2023-04-15T03:18:26.850Z,5
2023-04-15T03:19:35.173Z,5
2023-04-15T03:20:43.532Z,5
2023-04-15T03:21:52.034Z,5.1
2023-04-15T03:23:00.379Z,5.1
2023-04-15T03:24:08.689Z,5.1
2023-04-15T03:25:17.224Z,4.6
2023-04-15T03:26:25.544Z,4.6
2023-04-15T03:27:33.873Z,4.6
2023-04-15T03:28:42.418Z,4.6
2023-04-15T03:29:50.739Z,4.6
2023-04-15T03:30:59.111Z,4.6
2023-04-15T03:32:07.613Z,4.1
2023-04-15T03:33:15.931Z,4.1
2023-04-15T03:34:24.244Z,4.1
2023-04-15T03:35:32.785Z,4.7
2023-04-15T03:36:41.102Z,4.7
2023-04-15T03:37:49.465Z,4.7
2023-04-15T03:38:58.026Z,4.2
2023-04-15T03:40:06.311Z,4.2
2023-04-15T03:41:14.647Z,4.2
2023-04-15T03:42:23.173Z,3.9
2023-04-15T03:43:31.501Z,3.9
2023-04-15T03:44:39.851Z,3.9
2023-04-15T03:45:48.383Z,3.9
2023-04-15T03:46:56.722Z,3.9
2023-04-15T03:48:16.382Z,3.9
2023-04-15T03:49:13.582Z,4.7
2023-04-15T03:50:21.925Z,4.7
2023-04-15T03:51:30.246Z,4.7
2023-04-15T03:52:38.771Z,5
2023-04-15T03:53:47.083Z,5
2023-04-15T03:54:55.464Z,5
2023-04-15T03:56:03.968Z,5.1
2023-04-15T03:57:12.312Z,5.1
2023-04-15T03:58:20.664Z,5.1
2023-04-15T03:59:29.199Z,4.5
2023-04-15T04:00:37.542Z,4.5
2023-04-15T04:01:45.952Z,4.5
2023-04-15T04:02:54.575Z,5.1
2023-04-15T04:04:02.822Z,5.1
2023-04-15T04:05:11.098Z,5.1
2023-04-15T04:06:19.630Z,4.5
2023-04-15T04:07:27.972Z,4.5
2023-04-15T04:08:36.322Z,4.5
2023-04-15T04:09:46.729Z,4.1
2023-04-15T04:10:53.221Z,4.1
2023-04-15T04:12:01.502Z,4.1
2023-04-15T04:13:10.042Z,4.7
2023-04-15T04:14:18.390Z,4.7
2023-04-15T04:15:26.736Z,4.7
2023-04-15T04:16:35.358Z,4.5
2023-04-15T04:17:43.635Z,4.5
2023-04-15T04:18:51.952Z,4.5
2023-04-15T04:20:00.513Z,4.8
2023-04-15T04:21:08.855Z,4.8
2023-04-15T04:22:17.183Z,4.8
2023-04-15T04:23:25.737Z,5.1
2023-04-15T04:24:34.078Z,5.1
2023-04-15T04:25:42.388Z,5.1
2023-04-15T04:26:50.953Z,5.4
2023-04-15T04:27:59.258Z,5.4
2023-04-15T04:29:07.594Z,5.4
2023-04-15T04:30:16.129Z,5.1
2023-04-15T04:31:24.457Z,5.1
2023-04-15T04:32:32.829Z,5.1
2023-04-15T04:33:41.293Z,5.2
2023-04-15T04:34:49.644Z,5.2
2023-04-15T04:35:57.960Z,5.2
2023-04-15T04:37:06.504Z,5.7
2023-04-15T04:38:14.827Z,5.7
2023-04-15T04:39:23.166Z,5.7
2023-04-15T04:40:31.707Z,6.8
2023-04-15T04:41:40.083Z,6.8
2023-04-15T04:42:48.400Z,6.8
2023-04-15T04:43:56.914Z,6.8
2023-04-15T04:45:05.249Z,6.8
2023-04-15T04:46:13.628Z,6.8
2023-04-15T04:47:22.153Z,6.9
2023-04-15T04:48:30.455Z,6.9
2023-04-15T04:49:38.802Z,6.9
2023-04-15T04:50:47.355Z,6.9
2023-04-15T04:51:55.663Z,6.9
2023-04-15T04:53:03.984Z,6.9
2023-04-15T04:54:12.535Z,6.4
2023-04-15T04:55:20.865Z,6.4
2023-04-15T04:56:29.189Z,6.4
2023-04-15T04:57:37.721Z,6.3
2023-04-15T04:58:46.070Z,6.3
2023-04-15T04:59:54.370Z,6.3
2023-04-15T05:01:02.966Z,6.1
2023-04-15T05:02:11.336Z,6.1
2023-04-15T05:03:19.855Z,6.1
2023-04-15T05:04:28.145Z,5.7
2023-04-15T05:05:36.476Z,5.7
2023-04-15T05:06:44.803Z,5.7
2023-04-15T05:07:53.354Z,5.5
2023-04-15T05:09:01.807Z,5.5
2023-04-15T05:10:10.009Z,5.5
2023-04-15T05:11:18.569Z,5.4
2023-04-15T05:12:26.890Z,5.4
2023-04-15T05:13:35.212Z,5.4
2023-04-15T05:14:43.777Z,5.8
2023-04-15T05:15:52.098Z,5.8
2023-04-15T05:17:00.415Z,5.8
2023-04-15T05:18:08.948Z,6.6
2023-04-15T05:19:17.292Z,6.6
2023-04-15T05:20:25.625Z,6.6
2023-04-15T05:21:34.172Z,5.9
2023-04-15T05:22:42.520Z,5.9
2023-04-15T05:23:50.862Z,5.9
2023-04-15T05:24:59.408Z,6.4
2023-04-15T05:26:07.745Z,6.4
2023-04-15T05:27:16.072Z,6.4
2023-04-15T05:28:24.615Z,6.4
2023-04-15T05:29:32.963Z,6.4
2023-04-15T05:30:41.312Z,6.4
2023-04-15T05:31:49.821Z,6.6
2023-04-15T05:32:58.182Z,6.6
2023-04-15T05:34:06.492Z,6.6
2023-04-15T05:35:15.040Z,7.2
2023-04-15T05:36:23.380Z,7.2
2023-04-15T05:37:31.698Z,7.2
2023-04-15T05:38:40.226Z,7
2023-04-15T05:39:48.554Z,7
2023-04-15T05:40:56.883Z,7
2023-04-15T05:42:05.400Z,7.1
2023-04-15T05:43:13.719Z,7.1
2023-04-15T05:44:22.057Z,7.1
2023-04-15T05:45:30.573Z,6.9
2023-04-15T05:46:38.991Z,6.9
2023-04-15T05:47:47.249Z,6.9
2023-04-15T05:48:56.564Z,7.3
2023-04-15T05:50:04.112Z,7.3
2023-04-15T05:51:12.441Z,7.3
2023-04-15T05:52:20.979Z,6.6
2023-04-15T05:53:29.312Z,6.6
2023-04-15T05:54:37.844Z,6.6
2023-04-15T05:55:46.181Z,7.7
2023-04-15T05:56:54.521Z,7.7
2023-04-15T05:58:02.845Z,7.7
2023-04-15T05:59:11.375Z,7.5
2023-04-15T06:00:19.712Z,7.5
2023-04-15T06:01:28.061Z,7.5
2023-04-15T06:02:36.772Z,8.1
2023-04-15T06:03:45.048Z,8.1
2023-04-15T06:04:53.308Z,8.1
2023-04-15T06:06:01.806Z,8.3
2023-04-15T06:07:10.126Z,8.3
2023-04-15T06:08:18.472Z,8.3
2023-04-15T06:09:27.004Z,7.6
2023-04-15T06:10:35.311Z,7.6
2023-04-15T06:11:43.642Z,7.6
2023-04-15T06:12:52.203Z,7.9
2023-04-15T06:14:00.529Z,7.9
2023-04-15T06:15:08.862Z,7.9
2023-04-15T06:16:17.430Z,8.3
2023-04-15T06:17:25.780Z,8.3
2023-04-15T06:18:34.104Z,8.3
2023-04-15T06:19:42.625Z,8.1
2023-04-15T06:20:50.974Z,8.1
2023-04-15T06:21:59.334Z,8.1
2023-04-15T06:23:07.886Z,7.8
2023-04-15T06:24:16.233Z,7.8
2023-04-15T06:25:24.565Z,7.8
2023-04-15T06:26:33.110Z,7.3
2023-04-15T06:27:41.438Z,7.3
2023-04-15T06:28:49.752Z,7.3
2023-04-15T06:29:58.302Z,7.2
2023-04-15T06:31:06.625Z,7.2
2023-04-15T06:32:14.949Z,7.2
2023-04-15T06:33:23.495Z,6.1
2023-04-15T06:34:31.843Z,6.1
2023-04-15T06:35:40.151Z,6.1
2023-04-15T06:36:48.696Z,5.7
2023-04-15T06:37:57.027Z,5.7
2023-04-15T06:39:05.362Z,5.7
2023-04-15T06:40:13.900Z,5.6
2023-04-15T06:41:22.238Z,5.6
2023-04-15T06:42:30.552Z,5.6
2023-04-15T06:43:39.113Z,5.5
2023-04-15T06:44:47.431Z,5.5
2023-04-15T06:45:55.807Z,5.5
2023-04-15T06:47:04.301Z,4.3
2023-04-15T06:48:12.626Z,4.3
2023-04-15T06:49:20.949Z,4.3
2023-04-15T06:50:29.516Z,4.9
2023-04-15T06:51:37.819Z,4.9
2023-04-15T06:52:46.150Z,4.9
2023-04-15T06:53:54.673Z,4.8
2023-04-15T06:55:03.006Z,4.8
2023-04-15T06:56:11.330Z,4.8
2023-04-15T06:57:19.878Z,4.8
2023-04-15T06:58:28.227Z,4.8
2023-04-15T06:59:36.525Z,4.8
2023-04-15T07:00:45.101Z,5.9
2023-04-15T07:01:53.414Z,5.9
2023-04-15T07:03:01.787Z,5.9
2023-04-15T07:04:10.357Z,6
2023-04-15T07:05:18.613Z,6
2023-04-15T07:06:26.984Z,6
2023-04-15T07:07:35.491Z,5.9
2023-04-15T07:08:43.824Z,5.9
2023-04-15T07:09:52.157Z,5.9
2023-04-15T07:11:00.690Z,6.4
2023-04-15T07:12:09.036Z,6.4
2023-04-15T07:13:17.356Z,6.4
2023-04-15T07:14:25.887Z,6.4
2023-04-15T07:15:34.218Z,6.4
2023-04-15T07:16:42.618Z,6.4
2023-04-15T07:17:51.150Z,6.6
2023-04-15T07:18:59.612Z,6.6
2023-04-15T07:20:07.778Z,6.6
2023-04-15T07:21:16.317Z,6.6
2023-04-15T07:22:24.691Z,6.6
2023-04-15T07:23:33.005Z,6.6
2023-04-15T07:24:41.537Z,6.7
2023-04-15T07:25:49.869Z,6.7
2023-04-15T07:26:59.505Z,6.7
2023-04-15T07:28:06.733Z,6.8
2023-04-15T07:29:15.067Z,6.8
2023-04-15T07:30:23.390Z,6.8
2023-04-15T07:31:31.970Z,6.7
2023-04-15T07:32:40.271Z,6.7
2023-04-15T07:33:48.578Z,6.7
2023-04-15T07:34:57.104Z,6.8
2023-04-15T07:36:05.436Z,6.8
2023-04-15T07:37:13.769Z,6.8
2023-04-15T07:38:22.320Z,6.9
2023-04-15T07:39:30.621Z,6.9
2023-04-15T07:40:38.956Z,6.9
2023-04-15T07:41:47.513Z,7.1
2023-04-15T07:42:55.859Z,7.1
2023-04-15T07:44:04.193Z,7.1
2023-04-15T07:45:12.734Z,6.9
2023-04-15T07:46:21.097Z,6.9
2023-04-15T07:47:29.421Z,6.9
2023-04-15T07:48:37.979Z,6.2
2023-04-15T07:49:46.310Z,6.2
2023-04-15T07:50:54.660Z,6.2
2023-04-15T07:52:03.263Z,6.4
2023-04-15T07:53:11.591Z,6.4
2023-04-15T07:54:19.981Z,6.4
2023-04-15T07:55:28.517Z,7.4
2023-04-15T07:56:36.834Z,7.4
2023-04-15T07:57:45.174Z,7.4
2023-04-15T07:58:53.720Z,6.6
2023-04-15T08:00:02.095Z,6.6
2023-04-15T08:01:10.433Z,6.6
2023-04-15T08:02:19.046Z,6.1
2023-04-15T08:03:27.516Z,6.1
2023-04-15T08:04:35.856Z,6.1
2023-04-15T08:05:44.250Z,6.1
2023-04-15T08:06:52.599Z,6.1
2023-04-15T08:08:00.916Z,6.1
2023-04-15T08:09:09.497Z,21
2023-04-15T08:10:17.892Z,21
2023-04-15T08:11:26.278Z,21
2023-04-15T08:12:35.580Z,14.9
2023-04-15T08:13:43.986Z,14.9
2023-04-15T08:14:52.394Z,14.9
2023-04-15T08:16:00.996Z,7.2
2023-04-15T08:17:09.338Z,7.2
2023-04-15T08:18:17.676Z,7.2
2023-04-15T08:19:26.200Z,13.8
2023-04-15T08:20:34.543Z,13.8
2023-04-15T08:21:42.874Z,13.8
2023-04-15T08:22:51.417Z,8.5
2023-04-15T08:23:59.731Z,8.5
2023-04-15T08:25:08.088Z,8.5
2023-04-15T08:26:16.624Z,9.1
2023-04-15T08:27:24.929Z,9.1
2023-04-15T08:28:33.272Z,9.1
2023-04-15T08:29:41.817Z,12.4
2023-04-15T08:30:50.161Z,12.4
2023-04-15T08:31:58.560Z,12.4
2023-04-15T08:33:07.037Z,6.3
2023-04-15T08:34:15.368Z,6.3
2023-04-15T08:35:23.701Z,6.3
2023-04-15T08:36:32.229Z,7.6
2023-04-15T08:37:40.562Z,7.6
2023-04-15T08:38:48.888Z,7.6
2023-04-15T08:39:57.428Z,7.3
2023-04-15T08:41:05.773Z,7.3
2023-04-15T08:42:14.116Z,7.3
2023-04-15T08:43:22.648Z,6.3
2023-04-15T08:44:30.974Z,6.3
2023-04-15T08:45:39.316Z,6.3
2023-04-15T08:46:47.923Z,7.3
2023-04-15T08:47:56.206Z,7.3
2023-04-15T08:49:04.691Z,7.3
2023-04-15T08:50:13.052Z,5.8
2023-04-15T08:51:22.213Z,5.8
2023-04-15T08:52:29.712Z,5.8
2023-04-15T08:53:38.261Z,5.2
2023-04-15T08:54:46.587Z,5.2
2023-04-15T08:55:54.926Z,5.2
2023-04-15T08:57:03.455Z,5.1
2023-04-15T08:58:11.822Z,5.1
2023-04-15T08:59:20.139Z,5.1
2023-04-15T09:00:28.689Z,4.8
2023-04-15T09:01:37.044Z,4.8
2023-04-15T09:02:45.523Z,4.8
2023-04-15T09:03:53.930Z,6.1
2023-04-15T09:05:02.245Z,6.1
2023-04-15T09:06:10.602Z,6.1
2023-04-15T09:07:19.129Z,5.3
2023-04-15T09:08:27.431Z,5.3
2023-04-15T09:09:35.765Z,5.3
2023-04-15T09:10:44.327Z,4.6
2023-04-15T09:11:52.643Z,4.6
2023-04-15T09:13:00.980Z,4.6
2023-04-15T09:14:09.563Z,4.8
2023-04-15T09:15:17.848Z,4.8
2023-04-15T09:16:26.223Z,4.8
2023-04-15T09:17:34.927Z,7.2
2023-04-15T09:18:43.149Z,7.2
2023-04-15T09:19:51.464Z,7.2
2023-04-15T09:21:00.032Z,6.4
2023-04-15T09:22:08.355Z,6.4
2023-04-15T09:23:16.697Z,6.4
2023-04-15T09:24:25.257Z,7.5
2023-04-15T09:25:34.916Z,7.5
2023-04-15T09:26:41.909Z,7.5
2023-04-15T09:27:50.465Z,5.3
2023-04-15T09:28:58.804Z,5.3
2023-04-15T09:30:07.196Z,5.3
2023-04-15T09:31:15.735Z,6.1
2023-04-15T09:32:24.045Z,6.1
2023-04-15T09:33:32.359Z,6.1
2023-04-15T09:34:40.899Z,6.3
2023-04-15T09:35:49.246Z,6.3
2023-04-15T09:36:57.609Z,6.3
2023-04-15T09:38:06.196Z,29.299999
2023-04-15T09:39:14.483Z,29.299999
2023-04-15T09:40:22.817Z,29.299999
2023-04-15T09:41:31.353Z,9.2
2023-04-15T09:42:39.706Z,9.2
2023-04-15T09:43:48.068Z,9.2
2023-04-15T09:44:56.598Z,10.7
2023-04-15T09:46:05.007Z,10.7
2023-04-15T09:47:13.547Z,10.7
2023-04-15T09:48:22.122Z,8
2023-04-15T09:49:30.460Z,8
2023-04-15T09:50:38.804Z,8
2023-04-15T09:51:54.310Z,2.9
2023-04-15T09:52:55.708Z,2.9
2023-04-15T09:54:04.053Z,2.9
2023-04-15T09:55:12.631Z,3.7
2023-04-15T09:56:20.978Z,3.7
2023-04-15T09:57:29.324Z,3.7
2023-04-15T09:58:37.873Z,3.2
2023-04-15T09:59:46.203Z,3.2
2023-04-15T10:00:54.549Z,3.2
2023-04-15T10:02:03.140Z,2.3
2023-04-15T10:03:11.529Z,2.3
2023-04-15T10:04:19.852Z,2.3
2023-04-15T10:05:29.743Z,2.3
2023-04-15T10:06:36.653Z,2.3
2023-04-15T10:07:45.007Z,2.3
2023-04-15T10:08:53.545Z,1.9
2023-04-15T10:10:01.926Z,1.9
2023-04-15T10:11:10.215Z,1.9
2023-04-15T10:12:18.755Z,1.9
2023-04-15T10:13:27.084Z,1.9
2023-04-15T10:14:35.408Z,1.9
2023-04-15T10:15:43.948Z,2.2
2023-04-15T10:16:52.303Z,2.2
2023-04-15T10:18:00.728Z,2.2
2023-04-15T10:19:09.489Z,1.6
2023-04-15T10:20:17.816Z,1.6
2023-04-15T10:21:26.153Z,1.6
2023-04-15T10:22:34.697Z,1.8
2023-04-15T10:23:43.025Z,1.8
2023-04-15T10:24:51.345Z,1.8
2023-04-15T10:25:59.887Z,1.7
2023-04-15T10:27:08.243Z,1.7
2023-04-15T10:28:16.542Z,1.7
2023-04-15T10:29:25.096Z,1.9
2023-04-15T10:30:33.443Z,1.9
2023-04-15T10:31:41.771Z,1.9
2023-04-15T10:32:50.305Z,1.8
2023-04-15T10:33:58.667Z,1.8
2023-04-15T10:35:06.986Z,1.8
2023-04-15T10:36:15.544Z,1.5
2023-04-15T10:37:23.871Z,1.5
2023-04-15T10:38:32.198Z,1.5
2023-04-15T10:39:40.722Z,1.9
2023-04-15T10:40:49.052Z,1.9
2023-04-15T10:41:57.394Z,1.9
2023-04-15T10:43:05.923Z,1.8
2023-04-15T10:44:14.252Z,1.8
2023-04-15T10:45:22.600Z,1.8
2023-04-15T10:46:31.159Z,2.5
2023-04-15T10:47:39.489Z,2.5
2023-04-15T10:48:47.839Z,2.5
2023-04-15T10:49:56.410Z,2.5
2023-04-15T10:51:04.751Z,2.5
2023-04-15T10:52:13.075Z,2.5
2023-04-15T10:53:21.852Z,2.7
2023-04-15T10:54:29.946Z,2.7
2023-04-15T10:55:38.290Z,2.7
2023-04-15T10:56:46.836Z,8.1
2023-04-15T10:57:55.166Z,8.1
2023-04-15T10:59:03.506Z,8.1
2023-04-15T11:00:12.071Z,10.8
2023-04-15T11:01:20.426Z,10.8
2023-04-15T11:02:28.951Z,10.8
2023-04-15T11:03:37.381Z,42.599998
2023-04-15T11:04:45.637Z,42.599998
2023-04-15T11:05:54.007Z,42.599998
2023-04-15T11:07:02.506Z,6.1
2023-04-15T11:08:10.854Z,6.1
2023-04-15T11:09:19.165Z,6.1
2023-04-15T11:10:27.709Z,8
2023-04-15T11:11:36.049Z,8
2023-04-15T11:12:44.373Z,8
2023-04-15T11:13:52.917Z,2.9
2023-04-15T11:15:01.265Z,2.9
2023-04-15T11:16:09.664Z,2.9
2023-04-15T11:17:18.140Z,4.2
2023-04-15T11:18:26.463Z,4.2
2023-04-15T11:19:34.795Z,4.2
2023-04-15T11:20:43.361Z,4.3
2023-04-15T11:21:51.715Z,4.3
2023-04-15T11:23:08.520Z,4.3
2023-04-15T11:24:08.745Z,9.6
2023-04-15T11:25:16.924Z,9.6
2023-04-15T11:26:25.263Z,9.6
2023-04-15T11:27:33.803Z,5.8
2023-04-15T11:28:42.145Z,5.8
2023-04-15T11:29:50.453Z,5.8
2023-04-15T11:30:58.998Z,3.8
2023-04-15T11:32:07.425Z,3.8
2023-04-15T11:33:15.666Z,3.8
2023-04-15T11:34:24.209Z,5.6
2023-04-15T11:35:32.568Z,5.6
2023-04-15T11:36:40.887Z,5.6
2023-04-15T11:37:49.452Z,6.9
2023-04-15T11:38:57.761Z,6.9
2023-04-15T11:40:06.099Z,6.9
2023-04-15T11:41:14.637Z,7.6
2023-04-15T11:42:22.963Z,7.6
2023-04-15T11:43:31.312Z,7.6
2023-04-15T11:44:39.855Z,7.9
2023-04-15T11:45:48.200Z,7.9
2023-04-15T11:46:56.525Z,7.9
2023-04-15T11:48:05.056Z,13.7
2023-04-15T11:49:13.379Z,13.7
2023-04-15T11:50:21.716Z,13.7
2023-04-15T11:51:30.251Z,6.1
2023-04-15T11:52:38.609Z,6.1
2023-04-15T11:53:46.960Z,6.1
2023-04-15T11:54:55.457Z,4.7
2023-04-15T11:56:03.805Z,4.7
2023-04-15T11:57:12.136Z,4.7
2023-04-15T11:58:20.686Z,3.2
2023-04-15T11:59:35.715Z,3.2
2023-04-15T12:00:37.353Z,3.2
2023-04-15T12:01:45.919Z,2.6
2023-04-15T12:02:54.317Z,2.6
2023-04-15T12:04:02.822Z,2.6
2023-04-15T12:05:11.158Z,11.5
2023-04-15T12:06:19.588Z,11.5
2023-04-15T12:07:27.770Z,11.5
2023-04-15T12:08:36.321Z,3.7
2023-04-15T12:09:44.678Z,3.7
2023-04-15T12:10:52.992Z,3.7
2023-04-15T12:12:01.527Z,5.1
2023-04-15T12:13:09.848Z,5.1
2023-04-15T12:14:18.174Z,5.1
2023-04-15T12:15:26.756Z,2
2023-04-15T12:16:37.088Z,2
2023-04-15T12:17:50.847Z,2
2023-04-15T12:18:51.966Z,2.3
2023-04-15T12:20:00.295Z,2.3
2023-04-15T12:21:08.619Z,2.3
2023-04-15T12:22:17.159Z,2.8
2023-04-15T12:23:25.485Z,2.8
2023-04-15T12:24:33.833Z,2.8
2023-04-15T12:25:42.395Z,2.6
2023-04-15T12:26:50.722Z,2.6
2023-04-15T12:27:59.042Z,2.6
2023-04-15T12:29:07.575Z,5.1
2023-04-15T12:30:15.930Z,5.1
2023-04-15T12:31:24.299Z,5.1
2023-04-15T12:32:32.850Z,31.299999
2023-04-15T12:33:41.160Z,31.299999
2023-04-15T12:34:49.511Z,31.299999
2023-04-15T12:35:58.028Z,17.5
2023-04-15T12:37:06.380Z,17.5
2023-04-15T12:38:14.715Z,17.5
2023-04-15T12:39:23.261Z,3.5
2023-04-15T12:40:31.599Z,3.5
2023-04-15T12:41:39.967Z,3.5
2023-04-15T12:42:48.479Z,1.8
2023-04-15T12:43:56.810Z,1.8
2023-04-15T12:45:05.182Z,1.8
2023-04-15T12:46:13.718Z,4.3
2023-04-15T12:47:22.046Z,4.3
2023-04-15T12:48:30.371Z,4.3
2023-04-15T12:49:38.912Z,2.6
2023-04-15T12:50:47.251Z,2.6
2023-04-15T12:51:55.583Z,2.6
2023-04-15T12:53:04.112Z,2.1
2023-04-15T12:54:12.508Z,2.1
2023-04-15T12:55:20.840Z,2.1
2023-04-15T12:56:29.401Z,2
2023-04-15T12:57:37.767Z,2
2023-04-15T12:58:46.077Z,2
2023-04-15T12:59:54.646Z,1.5
2023-04-15T13:01:03.008Z,1.5
2023-04-15T13:02:11.401Z,1.5
2023-04-15T13:03:20.049Z,2
2023-04-15T13:04:28.236Z,2
2023-04-15T13:05:36.565Z,2
2023-04-15T13:06:45.134Z,1.4
2023-04-15T13:07:53.487Z,1.4
2023-04-15T13:09:02.649Z,1.4
2023-04-15T13:10:10.360Z,1.2
2023-04-15T13:11:18.688Z,1.2
2023-04-15T13:12:27.027Z,1.2
2023-04-15T13:13:35.588Z,6.5
2023-04-15T13:14:43.898Z,6.5
2023-04-15T13:15:52.258Z,6.5
2023-04-15T13:17:00.837Z,1.6
2023-04-15T13:18:09.144Z,1.6
2023-04-15T13:19:17.503Z,1.6
2023-04-15T13:20:26.052Z,7.3
2023-04-15T13:21:34.386Z,7.3
2023-04-15T13:22:42.724Z,7.3
2023-04-15T13:23:51.273Z,56.099998
2023-04-15T13:24:59.632Z,56.099998
2023-04-15T13:26:07.980Z,56.099998
2023-04-15T13:27:16.520Z,44.5
2023-04-15T13:28:24.875Z,44.5
2023-04-15T13:29:33.275Z,44.5
2023-04-15T13:30:41.781Z,41.700001
2023-04-15T13:31:50.140Z,41.700001
2023-04-15T13:32:58.467Z,41.700001
2023-04-15T13:34:07.170Z,10.5
2023-04-15T13:35:15.453Z,10.5
2023-04-15T13:36:23.837Z,10.5
2023-04-15T13:37:32.731Z,8.4
2023-04-15T13:38:42.275Z,8.4
2023-04-15T13:39:50.831Z,8.4
2023-04-15T13:40:59.693Z,5.1
2023-04-15T13:42:08.068Z,5.1
2023-04-15T13:43:16.451Z,5.1
2023-04-15T13:44:25.292Z,2.7
2023-04-15T13:45:33.837Z,2.7
2023-04-15T13:46:42.187Z,2.7
2023-04-15T13:47:52.305Z,3.2
2023-04-15T13:49:01.714Z,3.2
2023-04-15T13:50:10.175Z,3.2
2023-04-15T13:51:18.773Z,2.4
2023-04-15T13:52:27.183Z,2.4
2023-04-15T13:53:38.665Z,2.4
2023-04-15T13:54:44.181Z,3
2023-04-15T13:55:52.562Z,3
2023-04-15T13:57:00.979Z,3
2023-04-15T13:58:09.579Z,3.6
2023-04-15T13:59:17.991Z,3.6
2023-04-15T14:00:26.434Z,3.6
2023-04-15T14:01:35.078Z,3.1
2023-04-15T14:02:43.484Z,3.1
2023-04-15T14:03:51.883Z,3.1
2023-04-15T14:05:00.450Z,4.1
2023-04-15T14:06:09.095Z,4.1
2023-04-15T14:07:17.510Z,4.1
2023-04-15T14:08:26.099Z,4
2023-04-15T14:09:35.371Z,4
2023-04-15T14:10:42.891Z,4
2023-04-15T14:11:51.503Z,2.7
2023-04-15T14:12:59.906Z,2.7
2023-04-15T14:14:08.375Z,2.7
2023-04-15T14:15:16.978Z,3.1
2023-04-15T14:16:25.509Z,3.1
2023-04-15T14:17:33.933Z,3.1
2023-04-15T14:18:42.505Z,3.9
2023-04-15T14:19:50.891Z,3.9
2023-04-15T14:20:59.291Z,3.9
2023-04-15T14:22:07.903Z,2.8
2023-04-15T14:23:16.315Z,2.8
2023-04-15T14:24:24.752Z,2.8
2023-04-15T14:25:34.148Z,2.1
2023-04-15T14:26:41.801Z,2.1
2023-04-15T14:27:50.206Z,2.1
2023-04-15T14:28:58.789Z,16.1
2023-04-15T14:30:07.192Z,16.1
2023-04-15T14:31:15.613Z,16.1
2023-04-15T14:32:24.166Z,70.800003
2023-04-15T14:33:32.606Z,70.800003
2023-04-15T14:34:41.196Z,70.800003
2023-04-15T14:35:49.886Z,27.4
2023-04-15T14:36:58.288Z,27.4
2023-04-15T14:38:06.700Z,27.4
2023-04-15T14:39:15.345Z,9.1
2023-04-15T14:40:24.090Z,9.1
2023-04-15T14:41:32.882Z,9.1
2023-04-15T14:42:41.501Z,21.5
2023-04-15T14:43:49.945Z,21.5
2023-04-15T14:44:58.375Z,21.5
2023-04-15T14:46:07.043Z,12.2
2023-04-15T14:47:15.393Z,12.2
2023-04-15T14:48:23.782Z,12.2
2023-04-15T14:49:32.457Z,16.299999
2023-04-15T14:50:40.871Z,16.299999
2023-04-15T14:51:49.306Z,16.299999
2023-04-15T14:52:57.927Z,26.6
2023-04-15T14:54:06.329Z,26.6
2023-04-15T14:55:14.724Z,26.6
2023-04-15T14:56:23.318Z,14.1
2023-04-15T14:57:31.730Z,14.1
2023-04-15T14:58:40.155Z,14.1
2023-04-15T14:59:49.696Z,31
2023-04-15T15:00:58.328Z,31
2023-04-15T15:02:06.737Z,31
2023-04-15T15:03:15.320Z,13.3
2023-04-15T15:04:23.738Z,13.3
2023-04-15T15:05:32.200Z,13.3
2023-04-15T15:06:40.659Z,8.3
2023-04-15T15:39:28.931Z,0
2023-04-15T15:40:37.311Z,0
2023-04-15T15:41:45.684Z,0
2023-04-15T15:42:54.268Z,1.8
2023-04-15T15:44:02.623Z,1.8
2023-04-15T15:45:11.012Z,1.8
2023-04-15T15:46:19.646Z,1.5
2023-04-15T15:47:28.027Z,1.5
2023-04-15T15:48:36.347Z,1.5
2023-04-15T15:49:44.913Z,2.3
2023-04-15T15:50:53.295Z,2.3
2023-04-15T15:52:01.814Z,2.3
2023-04-15T15:53:10.279Z,13.5
2023-04-15T15:54:18.670Z,13.5
2023-04-15T15:55:27.099Z,13.5
2023-04-15T15:56:35.642Z,10
2023-04-15T15:57:44.026Z,10
2023-04-15T15:58:52.403Z,10
2023-04-15T16:00:10.942Z,3.2
2023-04-15T16:01:09.370Z,3.2
2023-04-15T16:02:17.793Z,3.2
2023-04-15T16:03:26.422Z,2.8
2023-04-15T16:04:34.816Z,2.8
2023-04-15T16:05:43.040Z,2.8
2023-04-15T16:06:51.633Z,2.3
2023-04-15T16:07:59.996Z,2.3
2023-04-15T16:09:08.352Z,2.3
2023-04-15T16:10:16.958Z,1.7